Weather at St. Joseph Hospital Heliport

Public forecast

Using degrees Fahrenheit for public forecast. Weather courtesy of forecast.io.

Closest aviation weather report (METAR) to St. Joseph Hospital Heliport

Closest report is Charlotte County Airport, 7.0 nm (13.0 km) SE. Retrieved 2021/01/15 13:53 UTC (50 minutes ago):

KPGD 151353Z 14005KT 10SM CLR 13/12 A3000 RMK AO2 SLP157 T01330117

Closest aviation forecast (TAF) to St. Joseph Hospital Heliport

Closest forecast is Charlotte County Airport, 7.0 nm (13.0 km) SE. Retrieved 2021/01/15 12:30 UTC (2 hours ago):

TAF KPGD 151127Z 1512/1612 VRB03KT P6SM FEW005 SCT250 FM151400 19006KT P6SM SCT030 SCT250 FM151900 22012G17KT P6SM BKN040 BKN250 FM160100 22012G17KT P6SM VCSH BKN040 OVC120 FM160400 29008KT P6SM BKN040 BKN250